sensor_id;sensor_type;location;lat;lon;timestamp;P1;durP1;ratioP1;P2;durP2;ratioP2
6292;SDS011;3179;54.350;10.102;2023-07-28T00:02:05;1.13;;;1.10;;
6292;SDS011;3179;54.350;10.102;2023-07-28T00:04:33;1.23;;;1.13;;
6292;SDS011;3179;54.350;10.102;2023-07-28T00:07:00;1.40;;;1.30;;
6292;SDS011;3179;54.350;10.102;2023-07-28T00:09:27;0.90;;;0.90;;
6292;SDS011;3179;54.350;10.102;2023-07-28T00:11:55;2.53;;;1.20;;
6292;SDS011;3179;54.350;10.102;2023-07-28T00:14:23;1.07;;;0.93;;
6292;SDS011;3179;54.350;10.102;2023-07-28T00:16:51;1.30;;;1.20;;
6292;SDS011;3179;54.350;10.102;2023-07-28T00:19:18;1.37;;;1.27;;
6292;SDS011;3179;54.350;10.102;2023-07-28T00:21:46;1.33;;;1.10;;
6292;SDS011;3179;54.350;10.102;2023-07-28T00:24:13;2.90;;;1.20;;
6292;SDS011;3179;54.350;10.102;2023-07-28T00:26:39;0.90;;;0.90;;
6292;SDS011;3179;54.350;10.102;2023-07-28T00:29:06;1.63;;;1.17;;
6292;SDS011;3179;54.350;10.102;2023-07-28T00:31:33;1.00;;;1.00;;
6292;SDS011;3179;54.350;10.102;2023-07-28T00:34:02;1.33;;;1.23;;
6292;SDS011;3179;54.350;10.102;2023-07-28T00:36:29;1.00;;;1.00;;
6292;SDS011;3179;54.350;10.102;2023-07-28T00:38:56;1.40;;;1.30;;
6292;SDS011;3179;54.350;10.102;2023-07-28T00:41:23;2.30;;;1.40;;
6292;SDS011;3179;54.350;10.102;2023-07-28T00:43:50;1.40;;;1.30;;
6292;SDS011;3179;54.350;10.102;2023-07-28T00:46:17;2.27;;;1.17;;
6292;SDS011;3179;54.350;10.102;2023-07-28T00:48:44;1.70;;;1.20;;
6292;SDS011;3179;54.350;10.102;2023-07-28T00:51:12;0.97;;;0.90;;
6292;SDS011;3179;54.350;10.102;2023-07-28T00:53:39;1.30;;;1.20;;
6292;SDS011;3179;54.350;10.102;2023-07-28T00:56:07;2.60;;;1.30;;
6292;SDS011;3179;54.350;10.102;2023-07-28T00:58:33;1.30;;;1.20;;
6292;SDS011;3179;54.350;10.102;2023-07-28T01:01:00;1.00;;;1.00;;
6292;SDS011;3179;54.350;10.102;2023-07-28T01:03:27;1.30;;;1.20;;
6292;SDS011;3179;54.350;10.102;2023-07-28T01:05:55;1.30;;;1.20;;
6292;SDS011;3179;54.350;10.102;2023-07-28T01:08:30;2.13;;;1.43;;
6292;SDS011;3179;54.350;10.102;2023-07-28T01:11:03;1.20;;;1.10;;
6292;SDS011;3179;54.350;10.102;2023-07-28T01:13:29;4.00;;;1.53;;
6292;SDS011;3179;54.350;10.102;2023-07-28T01:15:56;1.73;;;1.63;;
6292;SDS011;3179;54.350;10.102;2023-07-28T01:18:25;1.63;;;1.53;;
6292;SDS011;3179;54.350;10.102;2023-07-28T01:20:52;1.63;;;1.43;;
6292;SDS011;3179;54.350;10.102;2023-07-28T01:23:24;1.60;;;1.50;;
6292;SDS011;3179;54.350;10.102;2023-07-28T01:26:05;1.63;;;1.50;;
6292;SDS011;3179;54.350;10.102;2023-07-28T01:28:35;3.10;;;1.87;;
6292;SDS011;3179;54.350;10.102;2023-07-28T01:31:04;3.17;;;1.83;;
6292;SDS011;3179;54.350;10.102;2023-07-28T01:33:31;1.80;;;1.60;;
6292;SDS011;3179;54.350;10.102;2023-07-28T01:35:58;2.20;;;1.10;;
6292;SDS011;3179;54.350;10.102;2023-07-28T01:38:26;1.73;;;1.63;;
6292;SDS011;3179;54.350;10.102;2023-07-28T01:40:53;1.30;;;1.27;;
6292;SDS011;3179;54.350;10.102;2023-07-28T01:43:20;1.73;;;1.50;;
6292;SDS011;3179;54.350;10.102;2023-07-28T01:45:49;1.50;;;1.40;;
6292;SDS011;3179;54.350;10.102;2023-07-28T01:48:15;1.47;;;1.37;;
6292;SDS011;3179;54.350;10.102;2023-07-28T01:50:42;1.10;;;1.10;;
6292;SDS011;3179;54.350;10.102;2023-07-28T01:53:09;1.50;;;1.40;;
6292;SDS011;3179;54.350;10.102;2023-07-28T01:55:36;1.50;;;1.40;;
6292;SDS011;3179;54.350;10.102;2023-07-28T01:58:02;2.00;;;1.60;;
6292;SDS011;3179;54.350;10.102;2023-07-28T02:00:29;1.40;;;1.30;;
6292;SDS011;3179;54.350;10.102;2023-07-28T02:02:57;1.87;;;1.40;;
6292;SDS011;3179;54.350;10.102;2023-07-28T02:05:26;1.57;;;1.47;;
6292;SDS011;3179;54.350;10.102;2023-07-28T02:07:53;1.20;;;1.20;;
6292;SDS011;3179;54.350;10.102;2023-07-28T02:10:21;1.90;;;1.80;;
6292;SDS011;3179;54.350;10.102;2023-07-28T02:12:49;1.77;;;1.67;;
6292;SDS011;3179;54.350;10.102;2023-07-28T02:15:16;1.50;;;1.40;;
6292;SDS011;3179;54.350;10.102;2023-07-28T02:17:43;1.67;;;1.57;;
6292;SDS011;3179;54.350;10.102;2023-07-28T02:20:11;1.93;;;1.80;;
6292;SDS011;3179;54.350;10.102;2023-07-28T02:22:40;1.93;;;1.77;;
6292;SDS011;3179;54.350;10.102;2023-07-28T02:25:07;2.30;;;2.10;;
6292;SDS011;3179;54.350;10.102;2023-07-28T02:27:35;2.00;;;1.90;;
6292;SDS011;3179;54.350;10.102;2023-07-28T02:30:01;2.30;;;2.03;;
6292;SDS011;3179;54.350;10.102;2023-07-28T02:32:29;2.00;;;1.90;;
6292;SDS011;3179;54.350;10.102;2023-07-28T02:34:56;2.30;;;2.10;;
6292;SDS011;3179;54.350;10.102;2023-07-28T02:37:24;2.20;;;2.00;;
6292;SDS011;3179;54.350;10.102;2023-07-28T02:39:51;1.97;;;1.87;;
6292;SDS011;3179;54.350;10.102;2023-07-28T02:42:18;2.13;;;2.03;;
6292;SDS011;3179;54.350;10.102;2023-07-28T02:44:44;2.20;;;1.90;;
6292;SDS011;3179;54.350;10.102;2023-07-28T02:47:11;2.80;;;2.00;;
6292;SDS011;3179;54.350;10.102;2023-07-28T02:49:40;1.70;;;1.60;;
6292;SDS011;3179;54.350;10.102;2023-07-28T02:52:07;2.30;;;2.10;;
6292;SDS011;3179;54.350;10.102;2023-07-28T02:54:35;2.30;;;2.10;;
6292;SDS011;3179;54.350;10.102;2023-07-28T02:57:02;2.83;;;1.97;;
6292;SDS011;3179;54.350;10.102;2023-07-28T02:59:29;2.13;;;2.00;;
6292;SDS011;3179;54.350;10.102;2023-07-28T03:01:56;2.13;;;2.03;;
6292;SDS011;3179;54.350;10.102;2023-07-28T03:04:22;1.90;;;1.80;;
6292;SDS011;3179;54.350;10.102;2023-07-28T03:06:49;2.00;;;1.90;;
6292;SDS011;3179;54.350;10.102;2023-07-28T03:09:16;1.60;;;1.50;;
6292;SDS011;3179;54.350;10.102;2023-07-28T03:11:44;1.87;;;1.77;;
6292;SDS011;3179;54.350;10.102;2023-07-28T03:14:11;2.30;;;2.07;;
6292;SDS011;3179;54.350;10.102;2023-07-28T03:16:38;2.17;;;2.07;;
6292;SDS011;3179;54.350;10.102;2023-07-28T03:19:05;2.00;;;1.90;;
6292;SDS011;3179;54.350;10.102;2023-07-28T03:21:32;1.90;;;1.80;;
6292;SDS011;3179;54.350;10.102;2023-07-28T03:23:59;2.00;;;1.90;;
6292;SDS011;3179;54.350;10.102;2023-07-28T03:26:25;1.90;;;1.80;;
6292;SDS011;3179;54.350;10.102;2023-07-28T03:28:54;1.67;;;1.57;;
6292;SDS011;3179;54.350;10.102;2023-07-28T03:31:20;3.33;;;1.70;;
6292;SDS011;3179;54.350;10.102;2023-07-28T03:33:48;2.20;;;1.97;;
6292;SDS011;3179;54.350;10.102;2023-07-28T03:36:14;1.77;;;1.67;;
6292;SDS011;3179;54.350;10.102;2023-07-28T03:38:41;3.23;;;2.00;;
6292;SDS011;3179;54.350;10.102;2023-07-28T03:41:08;1.67;;;1.57;;
6292;SDS011;3179;54.350;10.102;2023-07-28T03:43:34;2.33;;;2.13;;
6292;SDS011;3179;54.350;10.102;2023-07-28T03:46:03;1.77;;;1.67;;
6292;SDS011;3179;54.350;10.102;2023-07-28T03:48:29;2.17;;;2.07;;
6292;SDS011;3179;54.350;10.102;2023-07-28T03:50:56;3.20;;;2.17;;
6292;SDS011;3179;54.350;10.102;2023-07-28T03:53:23;2.63;;;2.47;;
6292;SDS011;3179;54.350;10.102;2023-07-28T03:55:50;2.30;;;2.10;;
6292;SDS011;3179;54.350;10.102;2023-07-28T03:58:16;2.30;;;2.10;;
6292;SDS011;3179;54.350;10.102;2023-07-28T04:00:43;2.13;;;2.03;;
6292;SDS011;3179;54.350;10.102;2023-07-28T04:03:11;1.60;;;1.50;;
6292;SDS011;3179;54.350;10.102;2023-07-28T04:05:38;3.37;;;1.80;;
6292;SDS011;3179;54.350;10.102;2023-07-28T04:08:05;1.90;;;1.80;;
6292;SDS011;3179;54.350;10.102;2023-07-28T04:10:31;2.70;;;1.70;;
6292;SDS011;3179;54.350;10.102;2023-07-28T04:12:58;2.10;;;1.93;;
6292;SDS011;3179;54.350;10.102;2023-07-28T04:15:25;2.23;;;2.13;;
6292;SDS011;3179;54.350;10.102;2023-07-28T04:17:52;2.30;;;2.10;;
6292;SDS011;3179;54.350;10.102;2023-07-28T04:20:20;2.00;;;1.90;;
6292;SDS011;3179;54.350;10.102;2023-07-28T04:22:47;2.20;;;2.00;;
6292;SDS011;3179;54.350;10.102;2023-07-28T04:25:14;2.00;;;1.80;;
6292;SDS011;3179;54.350;10.102;2023-07-28T04:27:40;2.40;;;2.20;;
6292;SDS011;3179;54.350;10.102;2023-07-28T04:30:07;3.07;;;1.90;;
6292;SDS011;3179;54.350;10.102;2023-07-28T04:32:34;1.80;;;1.70;;
6292;SDS011;3179;54.350;10.102;2023-07-28T04:35:01;2.40;;;2.20;;
6292;SDS011;3179;54.350;10.102;2023-07-28T04:37:29;2.13;;;2.03;;
6292;SDS011;3179;54.350;10.102;2023-07-28T04:39:56;1.90;;;1.80;;
6292;SDS011;3179;54.350;10.102;2023-07-28T04:42:23;2.23;;;2.10;;
6292;SDS011;3179;54.350;10.102;2023-07-28T04:44:49;1.80;;;1.70;;
6292;SDS011;3179;54.350;10.102;2023-07-28T04:47:16;2.10;;;2.00;;
6292;SDS011;3179;54.350;10.102;2023-07-28T04:49:43;2.47;;;2.27;;
6292;SDS011;3179;54.350;10.102;2023-07-28T04:52:10;2.27;;;2.10;;
6292;SDS011;3179;54.350;10.102;2023-07-28T04:54:39;2.37;;;2.17;;
6292;SDS011;3179;54.350;10.102;2023-07-28T04:57:06;2.20;;;2.10;;
6292;SDS011;3179;54.350;10.102;2023-07-28T04:59:32;2.20;;;2.10;;
6292;SDS011;3179;54.350;10.102;2023-07-28T05:01:59;2.50;;;2.30;;
6292;SDS011;3179;54.350;10.102;2023-07-28T05:04:26;2.23;;;2.13;;
6292;SDS011;3179;54.350;10.102;2023-07-28T05:06:52;2.07;;;1.97;;
6292;SDS011;3179;54.350;10.102;2023-07-28T05:09:19;2.83;;;2.63;;
6292;SDS011;3179;54.350;10.102;2023-07-28T05:11:47;1.90;;;1.80;;
6292;SDS011;3179;54.350;10.102;2023-07-28T05:14:14;2.53;;;2.37;;
6292;SDS011;3179;54.350;10.102;2023-07-28T05:16:41;2.87;;;2.67;;
6292;SDS011;3179;54.350;10.102;2023-07-28T05:19:08;2.83;;;2.63;;
6292;SDS011;3179;54.350;10.102;2023-07-28T05:21:34;3.47;;;2.73;;
6292;SDS011;3179;54.350;10.102;2023-07-28T05:24:01;2.50;;;2.30;;
6292;SDS011;3179;54.350;10.102;2023-07-28T05:26:28;2.60;;;2.40;;
6292;SDS011;3179;54.350;10.102;2023-07-28T05:28:56;3.23;;;2.90;;
6292;SDS011;3179;54.350;10.102;2023-07-28T05:31:23;2.27;;;2.10;;
6292;SDS011;3179;54.350;10.102;2023-07-28T05:33:50;2.60;;;2.40;;
6292;SDS011;3179;54.350;10.102;2023-07-28T05:36:18;6.80;;;3.30;;
6292;SDS011;3179;54.350;10.102;2023-07-28T05:38:45;3.00;;;2.70;;
6292;SDS011;3179;54.350;10.102;2023-07-28T05:41:12;2.70;;;2.50;;
6292;SDS011;3179;54.350;10.102;2023-07-28T05:43:39;3.13;;;2.87;;
6292;SDS011;3179;54.350;10.102;2023-07-28T05:46:07;4.30;;;2.60;;
6292;SDS011;3179;54.350;10.102;2023-07-28T05:48:33;5.10;;;3.80;;
6292;SDS011;3179;54.350;10.102;2023-07-28T05:51:00;3.47;;;3.17;;
6292;SDS011;3179;54.350;10.102;2023-07-28T05:53:27;4.40;;;4.00;;
6292;SDS011;3179;54.350;10.102;2023-07-28T05:55:54;3.87;;;3.40;;
6292;SDS011;3179;54.350;10.102;2023-07-28T05:58:21;3.53;;;3.23;;
6292;SDS011;3179;54.350;10.102;2023-07-28T06:00:48;4.30;;;3.33;;
6292;SDS011;3179;54.350;10.102;2023-07-28T06:03:16;3.90;;;3.00;;
6292;SDS011;3179;54.350;10.102;2023-07-28T06:05:42;2.77;;;2.57;;
6292;SDS011;3179;54.350;10.102;2023-07-28T06:08:09;3.17;;;2.93;;
6292;SDS011;3179;54.350;10.102;2023-07-28T06:10:36;3.20;;;2.90;;
6292;SDS011;3179;54.350;10.102;2023-07-28T06:13:03;2.60;;;2.50;;
6292;SDS011;3179;54.350;10.102;2023-07-28T06:15:30;3.17;;;2.87;;
6292;SDS011;3179;54.350;10.102;2023-07-28T06:17:59;3.13;;;2.83;;
6292;SDS011;3179;54.350;10.102;2023-07-28T06:20:28;3.37;;;3.00;;
6292;SDS011;3179;54.350;10.102;2023-07-28T06:22:56;3.50;;;3.20;;
6292;SDS011;3179;54.350;10.102;2023-07-28T06:25:22;3.77;;;2.87;;
6292;SDS011;3179;54.350;10.102;2023-07-28T06:27:49;3.30;;;2.60;;
6292;SDS011;3179;54.350;10.102;2023-07-28T06:30:16;3.97;;;2.73;;
6292;SDS011;3179;54.350;10.102;2023-07-28T06:32:43;3.00;;;2.80;;
6292;SDS011;3179;54.350;10.102;2023-07-28T06:35:10;4.27;;;2.73;;
6292;SDS011;3179;54.350;10.102;2023-07-28T06:37:38;3.53;;;3.20;;
6292;SDS011;3179;54.350;10.102;2023-07-28T06:40:05;3.97;;;2.70;;
6292;SDS011;3179;54.350;10.102;2023-07-28T06:42:34;2.97;;;2.67;;
6292;SDS011;3179;54.350;10.102;2023-07-28T06:45:02;3.30;;;3.00;;
6292;SDS011;3179;54.350;10.102;2023-07-28T06:47:29;3.37;;;2.80;;
6292;SDS011;3179;54.350;10.102;2023-07-28T06:49:56;2.57;;;2.30;;
6292;SDS011;3179;54.350;10.102;2023-07-28T06:52:23;2.40;;;2.20;;
6292;SDS011;3179;54.350;10.102;2023-07-28T06:54:51;2.77;;;2.30;;
6292;SDS011;3179;54.350;10.102;2023-07-28T06:57:19;3.20;;;2.47;;
6292;SDS011;3179;54.350;10.102;2023-07-28T06:59:46;2.70;;;2.50;;
6292;SDS011;3179;54.350;10.102;2023-07-28T07:02:13;4.57;;;2.30;;
6292;SDS011;3179;54.350;10.102;2023-07-28T07:04:40;3.53;;;3.10;;
6292;SDS011;3179;54.350;10.102;2023-07-28T07:07:07;3.13;;;2.00;;
6292;SDS011;3179;54.350;10.102;2023-07-28T07:09:34;3.57;;;2.50;;
6292;SDS011;3179;54.350;10.102;2023-07-28T07:12:02;2.73;;;2.47;;
6292;SDS011;3179;54.350;10.102;2023-07-28T07:14:30;3.00;;;2.30;;
6292;SDS011;3179;54.350;10.102;2023-07-28T07:16:57;2.70;;;2.43;;
6292;SDS011;3179;54.350;10.102;2023-07-28T07:19:24;2.70;;;2.50;;
6292;SDS011;3179;54.350;10.102;2023-07-28T07:21:51;3.37;;;3.07;;
6292;SDS011;3179;54.350;10.102;2023-07-28T07:24:17;3.17;;;2.97;;
6292;SDS011;3179;54.350;10.102;2023-07-28T07:26:44;3.20;;;3.00;;
6292;SDS011;3179;54.350;10.102;2023-07-28T07:29:12;3.60;;;2.73;;
6292;SDS011;3179;54.350;10.102;2023-07-28T07:31:39;3.00;;;2.70;;
6292;SDS011;3179;54.350;10.102;2023-07-28T07:34:06;2.60;;;2.40;;
6292;SDS011;3179;54.350;10.102;2023-07-28T07:36:33;5.00;;;2.97;;
6292;SDS011;3179;54.350;10.102;2023-07-28T07:39:00;2.83;;;2.60;;
6292;SDS011;3179;54.350;10.102;2023-07-28T07:41:27;2.17;;;2.07;;
6292;SDS011;3179;54.350;10.102;2023-07-28T07:43:54;2.63;;;2.43;;
6292;SDS011;3179;54.350;10.102;2023-07-28T07:46:23;3.00;;;2.43;;
6292;SDS011;3179;54.350;10.102;2023-07-28T07:48:50;2.83;;;2.63;;
6292;SDS011;3179;54.350;10.102;2023-07-28T07:51:17;2.70;;;2.07;;
6292;SDS011;3179;54.350;10.102;2023-07-28T07:53:43;2.60;;;2.10;;
6292;SDS011;3179;54.350;10.102;2023-07-28T07:56:10;2.77;;;2.43;;
6292;SDS011;3179;54.350;10.102;2023-07-28T07:58:37;2.37;;;2.17;;
6292;SDS011;3179;54.350;10.102;2023-07-28T08:01:05;3.63;;;2.37;;
6292;SDS011;3179;54.350;10.102;2023-07-28T08:03:33;2.57;;;2.10;;
6292;SDS011;3179;54.350;10.102;2023-07-28T08:06:01;3.43;;;2.07;;
6292;SDS011;3179;54.350;10.102;2023-07-28T08:08:28;2.43;;;2.23;;
6292;SDS011;3179;54.350;10.102;2023-07-28T08:10:55;3.67;;;2.30;;
6292;SDS011;3179;54.350;10.102;2023-07-28T08:13:22;1.90;;;1.80;;
6292;SDS011;3179;54.350;10.102;2023-07-28T08:15:48;3.73;;;2.70;;
6292;SDS011;3179;54.350;10.102;2023-07-28T08:18:15;3.20;;;2.70;;
6292;SDS011;3179;54.350;10.102;2023-07-28T08:20:43;2.00;;;1.90;;
6292;SDS011;3179;54.350;10.102;2023-07-28T08:23:10;2.17;;;2.07;;
6292;SDS011;3179;54.350;10.102;2023-07-28T08:25:37;4.60;;;2.37;;
6292;SDS011;3179;54.350;10.102;2023-07-28T08:28:04;2.33;;;2.13;;
6292;SDS011;3179;54.350;10.102;2023-07-28T08:30:31;2.13;;;2.03;;
6292;SDS011;3179;54.350;10.102;2023-07-28T08:32:58;2.27;;;2.07;;
6292;SDS011;3179;54.350;10.102;2023-07-28T08:35:24;2.07;;;1.70;;
6292;SDS011;3179;54.350;10.102;2023-07-28T08:37:53;2.23;;;2.03;;
6292;SDS011;3179;54.350;10.102;2023-07-28T08:40:19;2.40;;;2.20;;
6292;SDS011;3179;54.350;10.102;2023-07-28T08:42:46;2.73;;;2.53;;
6292;SDS011;3179;54.350;10.102;2023-07-28T08:45:14;2.43;;;2.23;;
6292;SDS011;3179;54.350;10.102;2023-07-28T08:47:41;2.53;;;2.33;;
6292;SDS011;3179;54.350;10.102;2023-07-28T08:50:09;2.10;;;1.90;;
6292;SDS011;3179;54.350;10.102;2023-07-28T08:52:36;1.90;;;1.80;;
6292;SDS011;3179;54.350;10.102;2023-07-28T08:55:04;3.03;;;2.00;;
6292;SDS011;3179;54.350;10.102;2023-07-28T08:57:32;2.23;;;2.03;;
6292;SDS011;3179;54.350;10.102;2023-07-28T08:59:59;1.97;;;1.87;;
6292;SDS011;3179;54.350;10.102;2023-07-28T09:02:34;3.87;;;2.50;;
6292;SDS011;3179;54.350;10.102;2023-07-28T09:05:02;3.13;;;2.10;;
6292;SDS011;3179;54.350;10.102;2023-07-28T09:07:33;1.97;;;1.80;;
6292;SDS011;3179;54.350;10.102;2023-07-28T09:10:01;2.83;;;2.43;;
6292;SDS011;3179;54.350;10.102;2023-07-28T09:12:31;2.70;;;2.43;;
6292;SDS011;3179;54.350;10.102;2023-07-28T09:14:58;3.90;;;1.87;;
6292;SDS011;3179;54.350;10.102;2023-07-28T09:17:25;1.80;;;1.70;;
6292;SDS011;3179;54.350;10.102;2023-07-28T09:19:52;2.93;;;1.90;;
6292;SDS011;3179;54.350;10.102;2023-07-28T09:22:20;2.27;;;1.77;;
6292;SDS011;3179;54.350;10.102;2023-07-28T09:24:48;3.30;;;1.83;;
6292;SDS011;3179;54.350;10.102;2023-07-28T09:27:19;3.03;;;1.57;;
6292;SDS011;3179;54.350;10.102;2023-07-28T09:29:49;1.80;;;1.70;;
6292;SDS011;3179;54.350;10.102;2023-07-28T09:32:17;1.53;;;1.20;;
6292;SDS011;3179;54.350;10.102;2023-07-28T09:35:05;2.00;;;1.80;;
6292;SDS011;3179;54.350;10.102;2023-07-28T09:37:34;2.00;;;1.60;;
6292;SDS011;3179;54.350;10.102;2023-07-28T09:40:03;2.30;;;1.60;;
6292;SDS011;3179;54.350;10.102;2023-07-28T09:42:31;2.10;;;1.80;;
6292;SDS011;3179;54.350;10.102;2023-07-28T09:45:01;1.53;;;1.43;;
6292;SDS011;3179;54.350;10.102;2023-07-28T09:47:28;1.80;;;1.70;;
6292;SDS011;3179;54.350;10.102;2023-07-28T09:49:59;2.50;;;2.00;;
6292;SDS011;3179;54.350;10.102;2023-07-28T09:52:30;2.50;;;1.67;;
6292;SDS011;3179;54.350;10.102;2023-07-28T09:54:59;3.63;;;2.30;;
6292;SDS011;3179;54.350;10.102;2023-07-28T09:57:31;2.30;;;1.70;;
6292;SDS011;3179;54.350;10.102;2023-07-28T10:00:07;1.50;;;1.40;;
6292;SDS011;3179;54.350;10.102;2023-07-28T10:02:36;1.63;;;1.50;;
6292;SDS011;3179;54.350;10.102;2023-07-28T10:05:04;1.50;;;1.40;;
6292;SDS011;3179;54.350;10.102;2023-07-28T10:07:33;1.70;;;1.60;;
6292;SDS011;3179;54.350;10.102;2023-07-28T10:10:02;1.40;;;1.30;;
6292;SDS011;3179;54.350;10.102;2023-07-28T10:12:34;1.93;;;1.50;;
6292;SDS011;3179;54.350;10.102;2023-07-28T10:15:09;1.87;;;1.77;;
6292;SDS011;3179;54.350;10.102;2023-07-28T10:17:41;2.20;;;2.00;;
6292;SDS011;3179;54.350;10.102;2023-07-28T10:23:03;1.70;;;1.53;;
6292;SDS011;3179;54.350;10.102;2023-07-28T10:25:34;1.70;;;1.60;;
6292;SDS011;3179;54.350;10.102;2023-07-28T10:28:03;2.00;;;1.70;;
6292;SDS011;3179;54.350;10.102;2023-07-28T10:30:36;5.03;;;1.90;;
6292;SDS011;3179;54.350;10.102;2023-07-28T10:33:04;1.60;;;1.50;;
6292;SDS011;3179;54.350;10.102;2023-07-28T10:35:31;1.83;;;1.60;;
6292;SDS011;3179;54.350;10.102;2023-07-28T10:38:02;1.67;;;1.53;;
6292;SDS011;3179;54.350;10.102;2023-07-28T10:41:04;1.43;;;1.33;;
6292;SDS011;3179;54.350;10.102;2023-07-28T10:43:35;3.90;;;1.60;;
6292;SDS011;3179;54.350;10.102;2023-07-28T10:46:05;1.20;;;1.20;;
6292;SDS011;3179;54.350;10.102;2023-07-28T10:48:34;1.43;;;1.33;;
6292;SDS011;3179;54.350;10.102;2023-07-28T10:51:07;1.77;;;1.67;;
6292;SDS011;3179;54.350;10.102;2023-07-28T10:53:33;1.30;;;1.20;;
6292;SDS011;3179;54.350;10.102;2023-07-28T10:56:01;2.30;;;1.50;;
6292;SDS011;3179;54.350;10.102;2023-07-28T10:58:29;1.60;;;1.50;;
6292;SDS011;3179;54.350;10.102;2023-07-28T11:00:57;2.47;;;1.73;;
6292;SDS011;3179;54.350;10.102;2023-07-28T11:03:25;1.33;;;1.30;;
6292;SDS011;3179;54.350;10.102;2023-07-28T11:05:55;1.50;;;1.40;;
6292;SDS011;3179;54.350;10.102;2023-07-28T11:08:22;1.57;;;1.47;;
6292;SDS011;3179;54.350;10.102;2023-07-28T11:10:49;1.70;;;1.60;;
6292;SDS011;3179;54.350;10.102;2023-07-28T11:13:16;1.60;;;1.50;;
6292;SDS011;3179;54.350;10.102;2023-07-28T11:15:43;2.73;;;2.00;;
6292;SDS011;3179;54.350;10.102;2023-07-28T11:18:10;1.47;;;1.37;;
6292;SDS011;3179;54.350;10.102;2023-07-28T11:20:38;1.80;;;1.70;;
6292;SDS011;3179;54.350;10.102;2023-07-28T11:23:05;3.60;;;1.80;;
6292;SDS011;3179;54.350;10.102;2023-07-28T11:25:33;1.70;;;1.60;;
6292;SDS011;3179;54.350;10.102;2023-07-28T11:28:01;2.33;;;2.00;;
6292;SDS011;3179;54.350;10.102;2023-07-28T11:30:30;1.70;;;1.60;;
6292;SDS011;3179;54.350;10.102;2023-07-28T11:32:59;4.37;;;1.97;;
6292;SDS011;3179;54.350;10.102;2023-07-28T11:35:25;2.07;;;1.97;;
6292;SDS011;3179;54.350;10.102;2023-07-28T11:37:54;1.70;;;1.60;;
6292;SDS011;3179;54.350;10.102;2023-07-28T11:40:22;1.60;;;1.40;;
6292;SDS011;3179;54.350;10.102;2023-07-28T11:42:51;1.50;;;1.40;;
6292;SDS011;3179;54.350;10.102;2023-07-28T11:45:21;2.10;;;1.63;;
6292;SDS011;3179;54.350;10.102;2023-07-28T11:47:55;1.90;;;1.50;;
6292;SDS011;3179;54.350;10.102;2023-07-28T11:50:23;1.70;;;1.60;;
6292;SDS011;3179;54.350;10.102;2023-07-28T11:52:51;2.50;;;1.80;;
6292;SDS011;3179;54.350;10.102;2023-07-28T11:55:19;1.23;;;1.13;;
6292;SDS011;3179;54.350;10.102;2023-07-28T11:57:47;1.70;;;1.30;;
6292;SDS011;3179;54.350;10.102;2023-07-28T12:00:16;2.50;;;1.50;;
6292;SDS011;3179;54.350;10.102;2023-07-28T12:02:43;1.47;;;1.37;;
6292;SDS011;3179;54.350;10.102;2023-07-28T12:05:12;2.00;;;1.30;;
6292;SDS011;3179;54.350;10.102;2023-07-28T12:07:39;1.47;;;1.37;;
6292;SDS011;3179;54.350;10.102;2023-07-28T12:10:06;1.67;;;1.53;;
6292;SDS011;3179;54.350;10.102;2023-07-28T12:12:40;1.60;;;1.50;;
6292;SDS011;3179;54.350;10.102;2023-07-28T12:18:09;1.67;;;1.30;;
6292;SDS011;3179;54.350;10.102;2023-07-28T12:20:38;6.13;;;1.50;;
6292;SDS011;3179;54.350;10.102;2023-07-28T12:23:07;1.70;;;1.60;;
6292;SDS011;3179;54.350;10.102;2023-07-28T12:25:34;2.73;;;1.67;;
6292;SDS011;3179;54.350;10.102;2023-07-28T12:28:03;1.90;;;1.43;;
6292;SDS011;3179;54.350;10.102;2023-07-28T12:30:31;1.43;;;1.33;;
6292;SDS011;3179;54.350;10.102;2023-07-28T12:32:58;1.20;;;1.10;;
6292;SDS011;3179;54.350;10.102;2023-07-28T12:35:25;1.63;;;1.50;;
6292;SDS011;3179;54.350;10.102;2023-07-28T12:37:56;1.53;;;1.40;;
6292;SDS011;3179;54.350;10.102;2023-07-28T12:40:24;1.63;;;1.53;;
6292;SDS011;3179;54.350;10.102;2023-07-28T12:42:52;1.53;;;1.43;;
6292;SDS011;3179;54.350;10.102;2023-07-28T12:45:21;2.37;;;1.40;;
6292;SDS011;3179;54.350;10.102;2023-07-28T12:47:50;1.20;;;1.20;;
6292;SDS011;3179;54.350;10.102;2023-07-28T12:50:17;3.90;;;1.50;;
6292;SDS011;3179;54.350;10.102;2023-07-28T12:52:45;1.37;;;1.27;;
6292;SDS011;3179;54.350;10.102;2023-07-28T12:55:12;1.10;;;1.10;;
6292;SDS011;3179;54.350;10.102;2023-07-28T12:57:39;1.60;;;1.30;;
6292;SDS011;3179;54.350;10.102;2023-07-28T13:00:06;1.10;;;1.10;;
6292;SDS011;3179;54.350;10.102;2023-07-28T13:02:39;1.80;;;1.40;;
6292;SDS011;3179;54.350;10.102;2023-07-28T13:05:06;1.33;;;1.27;;
6292;SDS011;3179;54.350;10.102;2023-07-28T13:07:35;1.43;;;1.33;;
6292;SDS011;3179;54.350;10.102;2023-07-28T13:10:02;1.23;;;1.13;;
6292;SDS011;3179;54.350;10.102;2023-07-28T13:12:30;1.30;;;1.20;;
6292;SDS011;3179;54.350;10.102;2023-07-28T13:14:57;1.60;;;1.50;;
6292;SDS011;3179;54.350;10.102;2023-07-28T13:17:23;1.27;;;1.17;;
6292;SDS011;3179;54.350;10.102;2023-07-28T13:19:52;2.50;;;1.97;;
6292;SDS011;3179;54.350;10.102;2023-07-28T13:22:18;1.43;;;1.33;;
6292;SDS011;3179;54.350;10.102;2023-07-28T13:24:45;1.60;;;1.50;;
6292;SDS011;3179;54.350;10.102;2023-07-28T13:27:12;1.90;;;1.40;;
6292;SDS011;3179;54.350;10.102;2023-07-28T13:29:39;1.17;;;1.07;;
6292;SDS011;3179;54.350;10.102;2023-07-28T13:32:14;1.57;;;1.47;;
6292;SDS011;3179;54.350;10.102;2023-07-28T13:34:42;1.47;;;1.17;;
6292;SDS011;3179;54.350;10.102;2023-07-28T13:37:11;1.10;;;1.00;;
6292;SDS011;3179;54.350;10.102;2023-07-28T13:39:38;1.90;;;1.60;;
6292;SDS011;3179;54.350;10.102;2023-07-28T13:42:05;1.03;;;1.03;;
6292;SDS011;3179;54.350;10.102;2023-07-28T13:44:31;1.20;;;1.10;;
6292;SDS011;3179;54.350;10.102;2023-07-28T13:46:58;2.60;;;1.10;;
6292;SDS011;3179;54.350;10.102;2023-07-28T13:49:25;1.40;;;1.20;;
6292;SDS011;3179;54.350;10.102;2023-07-28T13:51:52;1.10;;;1.10;;
6292;SDS011;3179;54.350;10.102;2023-07-28T13:54:21;1.70;;;1.60;;
6292;SDS011;3179;54.350;10.102;2023-07-28T13:56:48;1.40;;;1.20;;
6292;SDS011;3179;54.350;10.102;2023-07-28T13:59:14;2.00;;;0.93;;
6292;SDS011;3179;54.350;10.102;2023-07-28T14:01:41;1.33;;;1.17;;
6292;SDS011;3179;54.350;10.102;2023-07-28T14:04:08;1.33;;;1.23;;
6292;SDS011;3179;54.350;10.102;2023-07-28T14:06:35;1.53;;;1.40;;
6292;SDS011;3179;54.350;10.102;2023-07-28T14:09:02;1.00;;;1.00;;
6292;SDS011;3179;54.350;10.102;2023-07-28T14:11:30;1.30;;;1.03;;
6292;SDS011;3179;54.350;10.102;2023-07-28T14:13:57;1.53;;;1.43;;
6292;SDS011;3179;54.350;10.102;2023-07-28T14:16:24;1.20;;;1.20;;
6292;SDS011;3179;54.350;10.102;2023-07-28T14:18:52;1.23;;;1.20;;
6292;SDS011;3179;54.350;10.102;2023-07-28T14:21:19;1.33;;;1.23;;
6292;SDS011;3179;54.350;10.102;2023-07-28T14:23:46;1.10;;;1.10;;
6292;SDS011;3179;54.350;10.102;2023-07-28T14:26:12;1.20;;;1.13;;
6292;SDS011;3179;54.350;10.102;2023-07-28T14:28:41;2.30;;;1.50;;
6292;SDS011;3179;54.350;10.102;2023-07-28T14:31:07;1.93;;;1.57;;
6292;SDS011;3179;54.350;10.102;2023-07-28T14:33:34;1.10;;;1.00;;
6292;SDS011;3179;54.350;10.102;2023-07-28T14:36:01;1.13;;;1.13;;
6292;SDS011;3179;54.350;10.102;2023-07-28T14:38:28;2.20;;;1.17;;
6292;SDS011;3179;54.350;10.102;2023-07-28T14:40:54;1.70;;;1.57;;
6292;SDS011;3179;54.350;10.102;2023-07-28T14:43:21;1.60;;;1.50;;
6292;SDS011;3179;54.350;10.102;2023-07-28T14:45:51;2.20;;;1.17;;
6292;SDS011;3179;54.350;10.102;2023-07-28T14:48:18;1.93;;;1.33;;
6292;SDS011;3179;54.350;10.102;2023-07-28T14:50:45;1.47;;;1.37;;
6292;SDS011;3179;54.350;10.102;2023-07-28T14:53:28;1.23;;;1.23;;
6292;SDS011;3179;54.350;10.102;2023-07-28T14:55:58;1.93;;;1.30;;
6292;SDS011;3179;54.350;10.102;2023-07-28T14:58:26;1.50;;;1.40;;
6292;SDS011;3179;54.350;10.102;2023-07-28T15:00:55;1.20;;;1.13;;
6292;SDS011;3179;54.350;10.102;2023-07-28T15:03:22;1.83;;;1.20;;
6292;SDS011;3179;54.350;10.102;2023-07-28T15:05:53;1.60;;;1.50;;
6292;SDS011;3179;54.350;10.102;2023-07-28T15:08:20;1.60;;;1.50;;
6292;SDS011;3179;54.350;10.102;2023-07-28T15:10:47;1.33;;;0.90;;